« Back
NWS Peachtree City, Ga » Text Product » ATL Terminal Aerodrome Forecast


Printer-friendly Version
Current Version              Previous Versions:   1  2  3  4  5  6  7  8  9  

Terminal Aerodrome Forecast

404
FTUS42 KFFC 310500 RRA
TAFATL
TAF
KATL 310543Z 3106/0112 32004KT P6SM SKC
     FM311400 32008KT P6SM SCT120
     FM311900 31012G20KT P6SM BKN080
     FM010100 33018G28KT P6SM BKN025 PROB30 0101/0106 6SM -SHRA
     FM011000 33020G30KT P6SM BKN035=



USA.gov is the U.S. government's official web portal to all federal, state and local government web resources and services.